KEAT

Pangborn Memorial Airport

Wenatchee, Washington, USA
METAR KEAT 201455Z AUTO 30003KT 10SM CLR M11/M13 A3020 RMK AO2 SLP248 T11061133 50002 $
Observed Flight Rules
Feb-20 @ 14:55 UTC (2 hours ago) Visual Flight Rules
Wind Visibility Clouds
300° at 3 knots 10 miles
  • Clear skies
Temperatures Readings
Current -11°C / 12°F
Dewpoint -13°C / 9°F
Humidity 85%
Altimeter 30.2" Hg
Pressure 1024.8 hPa
Elevation 377
METAR KEAT 201455Z AUTO 30003KT 10SM CLR M11/M13 A3020 RMK AO2 SLP248 T11061133 50002 $
Observed Flight Rules
Feb-20 @ 14:55 UTC
(2 hours ago)
VFR
Wind Visibility
300° at 3 knots 10 miles
Clouds
  • Clear skies
Temperature Dewpoint
-11°C / 12°F -13°C / 9°F
Humidity Altimeter Pressure
85% 30.2" Hg 1024.8 hPa